createdAt,value
2022-11-27T00:00:41.976Z,39.48
2022-11-27T00:01:41.971Z,39.80
2022-11-27T00:02:42.029Z,40.44
2022-11-27T00:03:42.017Z,39.96
2022-11-27T00:04:41.997Z,39.64
2022-11-27T00:05:41.938Z,39.32
2022-11-27T00:06:41.930Z,39.32
2022-11-27T00:07:42.003Z,39.80
2022-11-27T00:08:41.918Z,39.80
2022-11-27T00:09:42.209Z,40.61
2022-11-27T00:10:41.899Z,39.16
2022-11-27T00:11:41.894Z,41.73
2022-11-27T00:12:41.886Z,40.12
2022-11-27T00:13:41.876Z,39.96
2022-11-27T00:14:41.894Z,39.80
2022-11-27T00:15:41.893Z,39.48
2022-11-27T00:16:41.847Z,39.64
2022-11-27T00:17:41.857Z,39.48
2022-11-27T00:18:41.837Z,39.16
2022-11-27T00:19:42.117Z,40.61
2022-11-27T00:20:41.821Z,39.16
2022-11-27T00:21:41.815Z,40.28
2022-11-27T00:22:41.821Z,40.12
2022-11-27T00:23:41.810Z,38.99
2022-11-27T00:24:42.103Z,39.64
2022-11-27T00:25:41.791Z,40.12
2022-11-27T00:26:41.781Z,39.96
2022-11-27T00:27:41.779Z,40.28
2022-11-27T00:28:41.769Z,40.93
2022-11-27T00:29:41.788Z,39.16
2022-11-27T00:31:16.098Z,38.83
2022-11-27T00:31:41.813Z,43.02
2022-11-27T00:32:41.752Z,38.51
2022-11-27T00:33:41.748Z,38.83
2022-11-27T00:34:42.017Z,38.83
2022-11-27T00:35:41.730Z,38.99
2022-11-27T00:36:46.614Z,39.32
2022-11-27T00:37:43.717Z,39.32
2022-11-27T00:38:41.710Z,39.32
2022-11-27T00:39:41.716Z,39.80
2022-11-27T00:40:41.681Z,39.16
2022-11-27T00:41:41.668Z,39.32
2022-11-27T00:42:42.659Z,43.67
2022-11-27T00:43:45.134Z,38.67
2022-11-27T00:44:42.674Z,38.83
2022-11-27T00:45:41.643Z,38.51
2022-11-27T00:46:41.735Z,38.83
2022-11-27T00:47:41.629Z,40.44
2022-11-27T00:48:41.634Z,38.35
2022-11-27T00:49:41.643Z,38.19
2022-11-27T00:50:41.607Z,38.83
2022-11-27T00:51:41.601Z,37.22
2022-11-27T00:52:41.601Z,38.51
2022-11-27T00:53:41.584Z,38.35
2022-11-27T00:54:41.877Z,38.67
2022-11-27T00:55:41.570Z,38.03
2022-11-27T00:56:41.559Z,43.18
2022-11-27T00:57:41.549Z,38.83
2022-11-27T00:58:41.548Z,38.19
2022-11-27T00:59:41.574Z,38.67
2022-11-27T01:00:41.555Z,39.16
2022-11-27T01:01:41.574Z,38.19
2022-11-27T01:02:41.683Z,38.83
2022-11-27T01:03:41.514Z,39.16
2022-11-27T01:04:41.829Z,38.83
2022-11-27T01:05:41.501Z,37.87
2022-11-27T01:06:41.480Z,38.35
2022-11-27T01:07:41.525Z,39.96
2022-11-27T01:08:41.474Z,38.67
2022-11-27T01:09:41.464Z,38.67
2022-11-27T01:10:41.488Z,38.83
2022-11-27T01:11:41.451Z,38.35
2022-11-27T01:12:41.445Z,38.19
2022-11-27T01:13:41.428Z,38.35
2022-11-27T01:14:41.710Z,39.96
2022-11-27T01:15:41.474Z,38.67
2022-11-27T01:16:43.422Z,38.35
2022-11-27T01:17:42.404Z,38.51
2022-11-27T01:18:41.394Z,38.03
2022-11-27T01:19:41.400Z,38.35
2022-11-27T01:20:41.411Z,39.96
2022-11-27T01:21:41.383Z,39.32
2022-11-27T01:22:41.388Z,38.99
2022-11-27T01:23:41.372Z,38.03
2022-11-27T01:24:41.633Z,38.35
2022-11-27T01:25:41.402Z,39.96
2022-11-27T01:26:41.344Z,39.16
2022-11-27T01:27:41.337Z,38.19
2022-11-27T01:28:41.330Z,38.35
2022-11-27T01:29:41.318Z,38.67
2022-11-27T01:30:41.347Z,38.83
2022-11-27T01:31:41.372Z,38.19
2022-11-27T01:32:41.298Z,38.03
2022-11-27T01:33:41.285Z,38.51
2022-11-27T01:34:41.638Z,39.16
2022-11-27T01:35:41.310Z,38.67
2022-11-27T01:36:41.267Z,38.19
2022-11-27T01:37:41.272Z,38.35
2022-11-27T01:38:41.272Z,38.51
2022-11-27T01:39:41.250Z,38.35
2022-11-27T01:40:41.269Z,37.87
2022-11-27T01:41:41.249Z,37.71
2022-11-27T01:42:41.224Z,38.03
2022-11-27T01:43:41.228Z,38.03
2022-11-27T01:44:41.565Z,38.35
2022-11-27T01:45:41.251Z,38.19
2022-11-27T01:46:41.289Z,38.83
2022-11-27T01:47:41.186Z,38.35
2022-11-27T01:48:41.184Z,38.99
2022-11-27T01:49:41.174Z,38.51
2022-11-27T01:50:41.214Z,38.19
2022-11-27T01:51:41.170Z,38.35
2022-11-27T01:52:41.155Z,37.87
2022-11-27T01:53:41.152Z,38.35
2022-11-27T01:54:41.281Z,39.32
2022-11-27T01:55:41.166Z,38.67
2022-11-27T01:56:41.121Z,39.32
2022-11-27T01:57:41.202Z,53.17
2022-11-27T01:58:41.128Z,54.62
2022-11-27T01:59:41.092Z,57.04
2022-11-27T02:00:41.127Z,57.52
2022-11-27T02:01:41.112Z,57.52
2022-11-27T02:02:41.146Z,57.36
2022-11-27T02:03:41.059Z,57.36
2022-11-27T02:04:41.292Z,56.88
2022-11-27T02:05:41.073Z,57.04
2022-11-27T02:06:41.048Z,56.07
2022-11-27T02:07:41.139Z,56.24
2022-11-27T02:08:41.015Z,57.04
2022-11-27T02:09:41.049Z,56.72
2022-11-27T02:10:41.040Z,55.75
2022-11-27T02:11:41.027Z,55.59
2022-11-27T02:12:40.983Z,55.11
2022-11-27T02:13:42.003Z,35.77
2022-11-27T02:14:41.348Z,35.93
2022-11-27T02:15:41.023Z,36.09
2022-11-27T02:16:41.012Z,35.93
2022-11-27T02:17:40.973Z,38.35
2022-11-27T02:18:40.983Z,37.54
2022-11-27T02:19:40.955Z,37.06
2022-11-27T02:20:40.975Z,36.58
2022-11-27T02:21:40.931Z,37.22
2022-11-27T02:22:41.045Z,38.35
2022-11-27T02:23:40.904Z,38.03
2022-11-27T02:24:41.087Z,37.38
2022-11-27T02:25:40.922Z,38.83
2022-11-27T02:26:40.901Z,39.32
2022-11-27T02:27:40.877Z,39.96
2022-11-27T02:28:40.880Z,38.99
2022-11-27T02:29:40.875Z,40.12
2022-11-27T02:30:40.897Z,40.77
2022-11-27T02:31:40.923Z,39.80
2022-11-27T02:32:40.856Z,38.83
2022-11-27T02:33:40.826Z,39.64
2022-11-27T02:34:41.077Z,39.32
2022-11-27T02:35:40.867Z,39.96
2022-11-27T02:36:40.843Z,39.32
2022-11-27T02:37:40.800Z,39.80
2022-11-27T02:38:40.801Z,39.16
2022-11-27T02:39:40.802Z,40.12
2022-11-27T02:40:40.777Z,39.96
2022-11-27T02:41:40.828Z,40.12
2022-11-27T02:42:40.841Z,41.25
2022-11-27T02:43:40.760Z,39.80
2022-11-27T02:44:40.973Z,40.28
2022-11-27T02:45:40.748Z,39.80
2022-11-27T02:46:40.853Z,39.80
2022-11-27T02:47:40.741Z,40.12
2022-11-27T02:48:40.708Z,39.32
2022-11-27T02:49:41.714Z,39.32
2022-11-27T02:50:40.695Z,40.28
2022-11-27T02:51:40.723Z,40.12
2022-11-27T02:52:40.692Z,39.64
2022-11-27T02:53:40.697Z,39.48
2022-11-27T02:54:40.843Z,39.80
2022-11-27T02:55:40.671Z,38.99
2022-11-27T02:56:40.687Z,44.96
2022-11-27T02:57:40.659Z,39.96
2022-11-27T02:58:40.711Z,39.80
2022-11-27T02:59:40.638Z,38.99
2022-11-27T03:00:40.624Z,39.80
2022-11-27T03:01:40.673Z,39.32
2022-11-27T03:02:40.680Z,39.48
2022-11-27T03:03:40.614Z,39.96
2022-11-27T03:04:40.801Z,39.64
2022-11-27T03:05:40.649Z,38.99
2022-11-27T03:06:40.595Z,39.64
2022-11-27T03:07:40.574Z,39.48
2022-11-27T03:08:40.554Z,39.80
2022-11-27T03:09:40.544Z,38.83
2022-11-27T03:10:40.545Z,38.83
2022-11-27T03:11:40.562Z,39.48
2022-11-27T03:12:40.530Z,39.32
2022-11-27T03:13:40.534Z,39.32
2022-11-27T03:14:40.904Z,38.83
2022-11-27T03:15:40.540Z,39.48
2022-11-27T03:16:40.521Z,39.80
2022-11-27T03:17:40.496Z,39.64
2022-11-27T03:18:40.480Z,39.16
2022-11-27T03:19:40.470Z,44.15
2022-11-27T03:20:40.474Z,39.32
2022-11-27T03:21:40.479Z,38.83
2022-11-27T03:22:40.444Z,38.83
2022-11-27T03:23:40.444Z,40.28
2022-11-27T03:24:40.915Z,38.83
2022-11-27T03:25:40.422Z,38.83
2022-11-27T03:26:40.447Z,39.16
2022-11-27T03:27:40.417Z,39.32
2022-11-27T03:28:40.402Z,39.64
2022-11-27T03:29:40.400Z,39.32
2022-11-27T03:30:40.465Z,39.32
2022-11-27T03:31:40.443Z,38.67
2022-11-27T03:32:40.375Z,38.67
2022-11-27T03:33:40.366Z,39.16
2022-11-27T03:34:40.664Z,38.19
2022-11-27T03:35:40.370Z,39.16
2022-11-27T03:36:40.387Z,38.67
2022-11-27T03:37:40.337Z,38.83
2022-11-27T03:38:40.328Z,39.64
2022-11-27T03:39:40.323Z,39.96
2022-11-27T03:40:40.313Z,38.03
2022-11-27T03:41:40.336Z,38.83
2022-11-27T03:42:40.295Z,38.51
2022-11-27T03:43:40.295Z,38.51
2022-11-27T03:44:40.532Z,37.87
2022-11-27T03:45:40.323Z,38.83
2022-11-27T03:46:40.433Z,38.67
2022-11-27T03:47:40.315Z,38.67
2022-11-27T03:48:40.252Z,38.67
2022-11-27T03:49:40.239Z,40.93
2022-11-27T03:50:40.235Z,39.48
2022-11-27T03:51:40.240Z,39.80
2022-11-27T03:52:40.258Z,53.01
2022-11-27T03:53:40.226Z,53.01
2022-11-27T03:54:40.463Z,55.27
2022-11-27T03:55:40.211Z,57.69
2022-11-27T03:56:40.188Z,57.85
2022-11-27T03:57:40.211Z,58.33
2022-11-27T03:58:40.177Z,57.20
2022-11-27T03:59:40.168Z,57.85
2022-11-27T04:00:40.156Z,57.04
2022-11-27T04:01:40.175Z,57.04
2022-11-27T04:02:40.239Z,56.88
2022-11-27T04:03:40.238Z,57.69
2022-11-27T04:04:40.518Z,57.52
2022-11-27T04:05:40.118Z,57.20
2022-11-27T04:06:40.107Z,57.20
2022-11-27T04:07:40.184Z,56.88
2022-11-27T04:08:40.097Z,56.88
2022-11-27T04:09:40.087Z,56.40
2022-11-27T04:10:40.079Z,50.43
2022-11-27T04:11:40.084Z,37.22
2022-11-27T04:12:40.091Z,35.93
2022-11-27T04:13:40.059Z,37.54
2022-11-27T04:14:40.451Z,37.06
2022-11-27T04:15:40.039Z,36.58
2022-11-27T04:16:40.099Z,36.90
2022-11-27T04:17:40.055Z,37.87
2022-11-27T04:18:40.097Z,37.38
2022-11-27T04:19:40.007Z,38.35
2022-11-27T04:20:39.997Z,39.48
2022-11-27T04:21:40.007Z,38.03
2022-11-27T04:22:40.067Z,38.03
2022-11-27T04:23:39.983Z,39.16
2022-11-27T04:24:40.268Z,38.51
2022-11-27T04:25:39.966Z,39.96
2022-11-27T04:26:39.955Z,39.32
2022-11-27T04:27:39.986Z,39.32
2022-11-27T04:28:39.944Z,38.19
2022-11-27T04:29:39.947Z,39.48
2022-11-27T04:30:39.934Z,39.32
2022-11-27T04:31:39.955Z,39.48
2022-11-27T04:32:39.947Z,39.80
2022-11-27T04:33:39.906Z,39.32
2022-11-27T04:34:40.290Z,38.99
2022-11-27T04:35:39.890Z,39.16
2022-11-27T04:36:39.899Z,38.67
2022-11-27T04:37:39.907Z,38.83
2022-11-27T04:38:39.876Z,37.87
2022-11-27T04:39:39.857Z,39.80
2022-11-27T04:40:39.852Z,39.96
2022-11-27T04:41:39.845Z,39.16
2022-11-27T04:42:39.844Z,38.83
2022-11-27T04:43:40.345Z,39.16
2022-11-27T04:44:40.069Z,39.80
2022-11-27T04:45:40.819Z,38.99
2022-11-27T04:46:39.886Z,38.83
2022-11-27T04:47:39.795Z,39.16
2022-11-27T04:48:39.819Z,38.19
2022-11-27T04:49:39.795Z,39.96
2022-11-27T04:50:39.854Z,38.19
2022-11-27T04:51:39.781Z,38.19
2022-11-27T04:52:39.764Z,37.71
2022-11-27T04:53:39.794Z,38.83
2022-11-27T04:54:39.958Z,38.67
2022-11-27T04:55:39.738Z,40.28
2022-11-27T04:56:39.740Z,39.64
2022-11-27T04:57:39.722Z,38.83
2022-11-27T04:58:39.750Z,39.48
2022-11-27T04:59:39.726Z,38.83
2022-11-27T05:00:39.760Z,38.99
2022-11-27T05:01:39.732Z,39.16
2022-11-27T05:02:39.782Z,38.35
2022-11-27T05:03:39.701Z,38.67
2022-11-27T05:04:39.886Z,39.64
2022-11-27T05:05:39.662Z,38.19
2022-11-27T05:06:39.760Z,38.35
2022-11-27T05:07:39.727Z,38.35
2022-11-27T05:08:39.673Z,38.99
2022-11-27T05:09:40.650Z,38.83
2022-11-27T05:10:39.630Z,39.32
2022-11-27T05:11:39.613Z,38.67
2022-11-27T05:12:39.613Z,38.51
2022-11-27T05:13:39.638Z,38.19
2022-11-27T05:14:39.898Z,38.83
2022-11-27T05:15:39.586Z,41.57
2022-11-27T05:16:39.629Z,39.16
2022-11-27T05:17:39.581Z,38.83
2022-11-27T05:18:39.601Z,39.16
2022-11-27T05:19:39.564Z,38.83
2022-11-27T05:20:39.555Z,39.48
2022-11-27T05:21:39.544Z,38.83
2022-11-27T05:22:39.608Z,38.19
2022-11-27T05:23:39.555Z,39.32
2022-11-27T05:24:39.742Z,38.51
2022-11-27T05:25:39.537Z,38.99
2022-11-27T05:26:39.511Z,38.19
2022-11-27T05:27:39.509Z,38.35
2022-11-27T05:28:39.521Z,38.83
2022-11-27T05:29:39.480Z,39.32
2022-11-27T05:30:39.478Z,38.83
2022-11-27T05:31:39.564Z,38.35
2022-11-27T05:32:39.470Z,38.67
2022-11-27T05:33:39.453Z,38.83
2022-11-27T05:34:39.831Z,38.99
2022-11-27T05:35:39.435Z,40.61
2022-11-27T05:36:39.498Z,38.19
2022-11-27T05:37:39.424Z,38.35
2022-11-27T05:38:39.483Z,39.32
2022-11-27T05:39:40.416Z,39.32
2022-11-27T05:40:39.410Z,53.98
2022-11-27T05:41:39.417Z,53.33
2022-11-27T05:42:39.397Z,57.69
2022-11-27T05:43:39.391Z,57.69
2022-11-27T05:44:39.711Z,57.69
2022-11-27T05:45:39.360Z,57.69
2022-11-27T05:46:39.443Z,57.36
2022-11-27T05:47:39.349Z,57.20
2022-11-27T05:48:39.365Z,56.88
2022-11-27T05:49:39.344Z,57.69
2022-11-27T05:50:39.330Z,57.52
2022-11-27T05:51:39.357Z,57.52
2022-11-27T05:52:39.314Z,57.85
2022-11-27T05:53:39.305Z,57.69
2022-11-27T05:54:39.571Z,56.88
2022-11-27T05:55:39.288Z,57.52
2022-11-27T05:56:39.304Z,56.88
2022-11-27T05:57:39.277Z,57.04
2022-11-27T05:58:39.269Z,36.74
2022-11-27T05:59:39.266Z,42.86
2022-11-27T06:00:39.248Z,37.38
2022-11-27T06:01:39.359Z,37.38
2022-11-27T06:02:39.419Z,37.54
2022-11-27T06:03:39.308Z,37.71
2022-11-27T06:04:39.510Z,37.22
2022-11-27T06:05:39.223Z,37.71
2022-11-27T06:06:39.230Z,38.03
2022-11-27T06:07:39.261Z,39.80
2022-11-27T06:08:39.188Z,39.16
2022-11-27T06:09:39.190Z,39.64
2022-11-27T06:10:39.248Z,40.77
2022-11-27T06:11:39.211Z,40.61
2022-11-27T06:12:39.166Z,40.61
2022-11-27T06:13:39.153Z,39.96
2022-11-27T06:14:39.433Z,38.99
2022-11-27T06:15:39.159Z,38.99
2022-11-27T06:16:39.207Z,39.48
2022-11-27T06:17:39.120Z,38.83
2022-11-27T06:18:39.119Z,38.83
2022-11-27T06:19:39.113Z,39.96
2022-11-27T06:20:43.683Z,42.54
2022-11-27T06:21:41.126Z,40.44
2022-11-27T06:22:39.082Z,38.35
2022-11-27T06:23:39.084Z,38.67
2022-11-27T06:24:39.430Z,38.19
2022-11-27T06:25:39.060Z,37.71
2022-11-27T06:26:39.123Z,37.87
2022-11-27T06:27:39.078Z,38.35
2022-11-27T06:28:39.040Z,39.16
2022-11-27T06:29:39.032Z,39.32
2022-11-27T06:31:17.258Z,39.96
2022-11-27T06:31:40.067Z,55.27
2022-11-27T06:32:39.035Z,53.82
2022-11-27T06:33:39.001Z,55.91
2022-11-27T06:34:39.343Z,57.04
2022-11-27T06:35:38.980Z,57.69
2022-11-27T06:36:38.977Z,57.36
2022-11-27T06:37:39.000Z,57.04
2022-11-27T06:38:38.967Z,56.56
2022-11-27T06:39:38.960Z,56.40
2022-11-27T06:40:38.941Z,56.24
2022-11-27T06:41:38.956Z,56.40
2022-11-27T06:42:39.036Z,56.24
2022-11-27T06:43:38.917Z,56.72
2022-11-27T06:44:39.242Z,56.72
2022-11-27T06:45:38.939Z,57.04
2022-11-27T06:46:38.907Z,56.40
2022-11-27T06:47:38.933Z,56.88
2022-11-27T06:48:38.891Z,51.56
2022-11-27T06:49:38.882Z,56.24
2022-11-27T06:50:38.876Z,56.07
2022-11-27T06:51:38.863Z,37.87
2022-11-27T06:52:40.832Z,36.74
2022-11-27T06:53:39.844Z,39.64
2022-11-27T06:54:39.181Z,37.87
2022-11-27T06:55:38.837Z,39.64
2022-11-27T06:56:38.826Z,39.32
2022-11-27T06:57:38.841Z,38.67
2022-11-27T06:58:38.883Z,38.51
2022-11-27T06:59:38.787Z,40.61
2022-11-27T07:00:39.812Z,40.93
2022-11-27T07:01:38.876Z,40.12
2022-11-27T07:02:38.876Z,38.35
2022-11-27T07:03:38.779Z,39.80
2022-11-27T07:04:39.101Z,42.54
2022-11-27T07:05:38.751Z,40.28
2022-11-27T07:06:38.743Z,39.32
2022-11-27T07:07:43.548Z,40.93
2022-11-27T07:08:40.727Z,40.44
2022-11-27T07:09:38.721Z,39.64
2022-11-27T07:10:38.715Z,39.64
2022-11-27T07:11:38.717Z,39.16
2022-11-27T07:12:38.697Z,40.28
2022-11-27T07:13:38.719Z,39.48
2022-11-27T07:14:39.147Z,39.64
2022-11-27T07:15:38.676Z,39.96
2022-11-27T07:16:38.752Z,39.80
2022-11-27T07:17:38.667Z,39.96
2022-11-27T07:18:38.682Z,40.44
2022-11-27T07:19:38.653Z,39.96
2022-11-27T07:20:38.641Z,41.57
2022-11-27T07:21:38.633Z,40.28
2022-11-27T07:22:38.626Z,39.64
2022-11-27T07:23:38.645Z,42.06
2022-11-27T07:24:38.776Z,41.73
2022-11-27T07:25:38.602Z,40.12
2022-11-27T07:26:38.604Z,39.48
2022-11-27T07:27:38.593Z,39.80
2022-11-27T07:28:38.608Z,40.28
2022-11-27T07:29:38.575Z,40.93
2022-11-27T07:30:38.639Z,42.54
2022-11-27T07:31:38.600Z,55.11
2022-11-27T07:32:38.553Z,56.24
2022-11-27T07:33:38.569Z,57.69
2022-11-27T07:34:38.778Z,58.17
2022-11-27T07:35:38.529Z,57.04
2022-11-27T07:36:38.524Z,57.20
2022-11-27T07:37:38.513Z,56.24
2022-11-27T07:38:38.532Z,56.56
2022-11-27T07:40:00.986Z,55.59
2022-11-27T07:40:40.484Z,56.56
2022-11-27T07:41:38.477Z,56.72
2022-11-27T07:42:39.353Z,48.02
2022-11-27T07:43:38.487Z,40.28
2022-11-27T07:44:38.624Z,40.93
2022-11-27T07:45:38.475Z,38.83
2022-11-27T07:46:38.508Z,39.16
2022-11-27T07:47:38.431Z,41.25
2022-11-27T07:48:38.452Z,44.79
2022-11-27T07:49:38.421Z,42.06
2022-11-27T07:50:38.407Z,38.83
2022-11-27T07:51:38.406Z,42.06
2022-11-27T07:52:42.065Z,44.31
2022-11-27T07:53:39.417Z,40.77
2022-11-27T07:54:38.792Z,40.12
2022-11-27T07:55:38.368Z,39.32
2022-11-27T07:56:38.357Z,40.44
2022-11-27T07:57:38.349Z,40.44
2022-11-27T07:58:38.371Z,41.09
2022-11-27T07:59:40.008Z,40.44
2022-11-27T08:00:38.436Z,41.73
2022-11-27T08:01:38.392Z,39.32
2022-11-27T08:02:38.381Z,38.99
2022-11-27T08:03:38.330Z,39.96
2022-11-27T08:04:38.610Z,39.96
2022-11-27T08:05:39.286Z,44.63
2022-11-27T08:06:38.281Z,44.63
2022-11-27T08:07:38.339Z,44.31
2022-11-27T08:08:38.294Z,44.47
2022-11-27T08:09:38.261Z,42.86
2022-11-27T08:10:38.253Z,45.12
2022-11-27T08:11:38.249Z,42.54
2022-11-27T08:12:38.235Z,42.06
2022-11-27T08:13:38.259Z,41.73
2022-11-27T08:14:38.501Z,45.12
2022-11-27T08:15:38.218Z,42.86
2022-11-27T08:16:38.280Z,40.77
2022-11-27T08:17:38.201Z,40.28
2022-11-27T08:18:38.275Z,44.47
2022-11-27T08:19:38.211Z,44.31
2022-11-27T08:20:38.181Z,42.86
2022-11-27T08:21:38.170Z,42.06
2022-11-27T08:22:38.166Z,43.34
2022-11-27T08:23:38.152Z,43.99
2022-11-27T08:24:38.273Z,40.12
2022-11-27T08:25:38.132Z,42.54
2022-11-27T08:26:38.129Z,43.83
2022-11-27T08:27:38.127Z,46.41
2022-11-27T08:28:38.115Z,43.67
2022-11-27T08:29:38.145Z,44.63
2022-11-27T08:30:38.117Z,40.93
2022-11-27T08:31:38.140Z,48.50
2022-11-27T08:32:38.082Z,40.61
2022-11-27T08:33:38.077Z,42.54
2022-11-27T08:34:38.304Z,44.63
2022-11-27T08:35:38.064Z,41.25
2022-11-27T08:36:38.054Z,48.34
2022-11-27T08:37:38.049Z,47.21
2022-11-27T08:38:38.036Z,40.12
2022-11-27T08:39:38.056Z,40.93
2022-11-27T08:40:38.020Z,43.18
2022-11-27T08:41:38.015Z,46.57
2022-11-27T08:42:38.004Z,41.25
2022-11-27T08:43:37.998Z,42.54
2022-11-27T08:44:38.184Z,47.86
2022-11-27T08:45:38.015Z,42.54
2022-11-27T08:46:37.978Z,41.57
2022-11-27T08:47:37.970Z,42.86
2022-11-27T08:48:37.967Z,48.02
2022-11-27T08:49:42.533Z,44.47
2022-11-27T08:50:40.016Z,41.57
2022-11-27T08:51:37.934Z,41.73
2022-11-27T08:52:37.933Z,42.22
2022-11-27T08:53:38.007Z,41.57
2022-11-27T08:54:38.314Z,40.77
2022-11-27T08:55:37.907Z,43.67
2022-11-27T08:56:37.908Z,54.46
2022-11-27T08:57:37.910Z,55.43
2022-11-27T08:58:37.896Z,57.69
2022-11-27T08:59:37.912Z,58.49
2022-11-27T09:00:37.945Z,58.33
2022-11-27T09:01:37.957Z,58.97
2022-11-27T09:02:37.862Z,56.24
2022-11-27T09:03:37.920Z,56.56
2022-11-27T09:04:37.877Z,55.91
2022-11-27T09:05:37.844Z,55.91
2022-11-27T09:06:37.906Z,56.07
2022-11-27T09:07:37.877Z,56.40
2022-11-27T09:08:37.815Z,57.69
2022-11-27T09:09:37.836Z,57.36
2022-11-27T09:10:37.790Z,57.85
2022-11-27T09:11:38.796Z,58.33
2022-11-27T09:12:43.026Z,57.04
2022-11-27T09:13:39.776Z,55.59
2022-11-27T09:14:38.098Z,55.11
2022-11-27T09:15:37.766Z,44.31
2022-11-27T09:16:37.788Z,41.09
2022-11-27T09:17:37.744Z,38.35
2022-11-27T09:18:37.734Z,45.28
2022-11-27T09:19:37.757Z,45.92
2022-11-27T09:20:37.717Z,44.15
2022-11-27T09:21:37.714Z,50.92
2022-11-27T09:22:37.783Z,39.96
2022-11-27T09:23:37.711Z,41.41
2022-11-27T09:24:37.768Z,44.47
2022-11-27T09:25:37.689Z,41.89
2022-11-27T09:26:37.676Z,40.77
2022-11-27T09:27:37.669Z,41.25
2022-11-27T09:28:37.660Z,42.06
2022-11-27T09:29:37.689Z,41.89
2022-11-27T09:30:37.652Z,42.70
2022-11-27T09:31:37.686Z,40.28
2022-11-27T09:32:37.634Z,49.15
2022-11-27T09:33:37.632Z,43.18
2022-11-27T09:34:37.947Z,42.22
2022-11-27T09:35:37.735Z,43.67
2022-11-27T09:36:37.602Z,43.02
2022-11-27T09:37:37.618Z,47.70
2022-11-27T09:38:37.655Z,42.38
2022-11-27T09:39:37.572Z,46.25
2022-11-27T09:40:38.593Z,42.54
2022-11-27T09:41:37.562Z,43.02
2022-11-27T09:42:37.557Z,42.22
2022-11-27T09:43:37.546Z,41.89
2022-11-27T09:44:37.648Z,43.99
2022-11-27T09:45:37.592Z,48.50
2022-11-27T09:46:37.525Z,44.31
2022-11-27T09:47:41.412Z,40.77
2022-11-27T09:48:38.511Z,41.25
2022-11-27T09:49:37.499Z,43.51
2022-11-27T09:50:37.515Z,43.99
2022-11-27T09:51:37.591Z,42.86
2022-11-27T09:52:37.479Z,45.12
2022-11-27T09:53:37.476Z,44.96
2022-11-27T09:54:37.580Z,44.15
2022-11-27T09:55:37.490Z,52.69
2022-11-27T09:56:37.448Z,42.70
2022-11-27T09:57:37.438Z,40.93
2022-11-27T09:58:37.430Z,47.86
2022-11-27T09:59:37.422Z,42.54
2022-11-27T10:00:37.444Z,42.54
2022-11-27T10:01:45.199Z,44.63
2022-11-27T10:02:39.648Z,50.11
2022-11-27T10:03:37.390Z,43.51
2022-11-27T10:04:57.964Z,43.83
2022-11-27T10:05:39.401Z,45.60
2022-11-27T10:06:37.365Z,46.25
2022-11-27T10:07:37.435Z,41.41
2022-11-27T10:08:37.351Z,43.67
2022-11-27T10:09:37.341Z,43.51
2022-11-27T10:10:37.439Z,43.02
2022-11-27T10:11:37.322Z,42.22
2022-11-27T10:12:37.324Z,47.21
2022-11-27T10:13:37.309Z,42.54
2022-11-27T10:14:37.321Z,42.06
2022-11-27T10:15:37.318Z,41.57
2022-11-27T10:16:41.386Z,44.31
2022-11-27T10:17:39.354Z,41.41
2022-11-27T10:18:37.275Z,46.57
2022-11-27T10:19:37.261Z,49.79
2022-11-27T10:20:37.288Z,42.06
2022-11-27T10:21:37.250Z,41.57
2022-11-27T10:22:37.243Z,43.51
2022-11-27T10:23:37.239Z,40.77
2022-11-27T10:24:37.255Z,44.63
2022-11-27T10:25:37.218Z,41.89
2022-11-27T10:26:37.305Z,41.57
2022-11-27T10:27:37.198Z,43.02
2022-11-27T10:28:37.188Z,43.02
2022-11-27T10:29:37.188Z,41.57
2022-11-27T10:30:37.181Z,47.86
2022-11-27T10:31:37.295Z,43.34
2022-11-27T10:33:39.164Z,45.76
2022-11-27T10:34:37.166Z,42.86
2022-11-27T10:35:37.159Z,43.67
2022-11-27T10:36:37.166Z,44.15
2022-11-27T10:37:37.124Z,43.02
2022-11-27T10:38:37.120Z,43.02
2022-11-27T10:39:37.112Z,42.22
2022-11-27T10:40:37.102Z,41.41
2022-11-27T10:41:52.404Z,40.44
2022-11-27T10:42:39.152Z,43.51
2022-11-27T10:43:38.082Z,42.22
2022-11-27T10:44:37.074Z,47.37
2022-11-27T10:45:37.103Z,41.09
2022-11-27T10:46:37.079Z,39.16
2022-11-27T10:47:37.046Z,45.76
2022-11-27T10:48:37.037Z,44.96
2022-11-27T10:49:37.032Z,45.92
2022-11-27T10:50:37.030Z,43.83
2022-11-27T10:51:37.051Z,44.31
2022-11-27T10:52:37.008Z,43.83
2022-11-27T10:53:37.006Z,51.08
2022-11-27T10:54:36.996Z,45.28
2022-11-27T10:55:36.997Z,42.86
2022-11-27T10:56:37.007Z,46.08
2022-11-27T10:57:36.974Z,40.93
2022-11-27T10:58:37.030Z,46.89
2022-11-27T10:59:36.951Z,52.21
2022-11-27T11:00:36.950Z,44.31
2022-11-27T11:01:37.016Z,44.15
2022-11-27T11:02:36.991Z,43.67
2022-11-27T11:03:36.927Z,44.79
2022-11-27T11:04:38.637Z,44.63
2022-11-27T11:06:11.657Z,42.86
2022-11-27T11:06:38.925Z,42.06
2022-11-27T11:07:36.929Z,45.28
2022-11-27T11:08:36.884Z,42.86
2022-11-27T11:09:36.877Z,44.96
2022-11-27T11:10:36.865Z,45.28
2022-11-27T11:11:36.890Z,42.54
2022-11-27T11:12:36.865Z,40.77
2022-11-27T11:13:36.853Z,48.34
2022-11-27T11:14:36.912Z,43.83
2022-11-27T11:15:36.831Z,41.57
2022-11-27T11:16:36.886Z,48.02
2022-11-27T11:17:36.821Z,44.47
2022-11-27T11:18:36.823Z,40.61
2022-11-27T11:19:36.800Z,42.22
2022-11-27T11:20:36.795Z,45.60
2022-11-27T11:21:36.817Z,39.96
2022-11-27T11:22:36.783Z,43.67
2022-11-27T11:23:36.774Z,50.27
2022-11-27T11:24:36.767Z,43.83
2022-11-27T11:25:36.754Z,44.96
2022-11-27T11:26:36.778Z,46.89
2022-11-27T11:27:36.738Z,49.15
2022-11-27T11:28:39.695Z,43.67
2022-11-27T11:29:37.729Z,41.89
2022-11-27T11:30:36.791Z,43.67
2022-11-27T11:31:36.758Z,40.77
2022-11-27T11:32:36.702Z,46.41
2022-11-27T11:33:36.689Z,50.11
2022-11-27T11:34:36.688Z,43.02
2022-11-27T11:35:36.687Z,46.08
2022-11-27T11:36:36.671Z,46.41
2022-11-27T11:37:36.688Z,47.70
2022-11-27T11:38:36.651Z,47.70
2022-11-27T11:39:36.642Z,46.25
2022-11-27T11:40:36.647Z,44.79
2022-11-27T11:41:36.631Z,41.57
2022-11-27T11:42:36.652Z,43.51
2022-11-27T11:43:36.618Z,46.08
2022-11-27T11:44:36.614Z,45.92
2022-11-27T11:45:36.677Z,41.57
2022-11-27T11:46:36.857Z,47.86
2022-11-27T11:47:36.615Z,41.41
2022-11-27T11:48:36.579Z,41.89
2022-11-27T11:49:36.572Z,45.44
2022-11-27T11:50:36.568Z,47.37
2022-11-27T11:51:36.555Z,42.22
2022-11-27T11:52:36.579Z,43.51
2022-11-27T11:53:36.545Z,47.53
2022-11-27T11:54:36.528Z,45.92
2022-11-27T11:55:36.523Z,47.37
2022-11-27T11:56:36.516Z,46.25
2022-11-27T11:57:36.537Z,46.41
2022-11-27T11:58:36.504Z,44.63
2022-11-27T11:59:38.576Z,45.76
2022-11-27T12:00:53.086Z,46.08
2022-11-27T12:01:38.500Z,40.61
2022-11-27T12:02:36.641Z,44.15
2022-11-27T12:03:36.470Z,50.76
2022-11-27T12:04:36.520Z,42.22
2022-11-27T12:05:36.445Z,41.25
2022-11-27T12:06:36.434Z,42.86
2022-11-27T12:07:36.526Z,41.25
2022-11-27T12:08:36.422Z,43.67
2022-11-27T12:09:36.437Z,41.57
2022-11-27T12:10:36.418Z,45.76
2022-11-27T12:11:36.403Z,40.77
2022-11-27T12:12:36.425Z,44.96
2022-11-27T12:13:36.388Z,50.43
2022-11-27T12:14:36.376Z,50.43
2022-11-27T12:15:36.374Z,41.89
2022-11-27T12:16:36.403Z,40.77
2022-11-27T12:17:36.354Z,47.21
2022-11-27T12:18:36.589Z,43.51
2022-11-27T12:19:36.341Z,45.76
2022-11-27T12:20:36.336Z,47.37
2022-11-27T12:21:36.325Z,39.48
2022-11-27T12:22:36.315Z,44.79
2022-11-27T12:23:36.523Z,53.98
2022-11-27T12:24:36.298Z,46.08
2022-11-27T12:25:36.293Z,43.83
2022-11-27T12:26:36.291Z,47.70
2022-11-27T12:27:36.287Z,42.54
2022-11-27T12:28:36.526Z,43.02
2022-11-27T12:29:36.272Z,48.66
2022-11-27T12:30:36.252Z,46.57
2022-11-27T12:32:10.204Z,43.83
2022-11-27T12:32:36.243Z,43.83
2022-11-27T12:33:36.251Z,49.63
2022-11-27T12:34:36.324Z,47.70
2022-11-27T12:35:36.234Z,47.21
2022-11-27T12:36:36.252Z,47.86
2022-11-27T12:37:36.221Z,43.18
2022-11-27T12:38:36.526Z,43.83
2022-11-27T12:39:36.192Z,48.50
2022-11-27T12:40:36.184Z,53.33
2022-11-27T12:41:36.160Z,48.02
2022-11-27T12:42:36.159Z,46.25
2022-11-27T12:43:36.175Z,45.44
2022-11-27T12:44:36.144Z,48.18
2022-11-27T12:45:36.154Z,47.70
2022-11-27T12:46:36.114Z,43.83
2022-11-27T12:47:38.972Z,42.06
2022-11-27T12:48:37.132Z,49.79
2022-11-27T12:49:36.099Z,46.08
2022-11-27T12:50:36.158Z,47.70
2022-11-27T12:51:36.082Z,48.66
2022-11-27T12:52:36.074Z,48.82
2022-11-27T12:53:36.083Z,42.70